createdAt,value
2022-11-09T00:00:19.273Z,11.33
2022-11-09T00:01:21.595Z,11.46
2022-11-09T00:02:24.006Z,11.59
2022-11-09T00:03:26.127Z,11.66
2022-11-09T00:04:28.251Z,11.61
2022-11-09T00:05:30.644Z,11.69
2022-11-09T00:06:33.859Z,11.72
2022-11-09T00:07:36.035Z,11.76
2022-11-09T00:08:39.356Z,11.79
2022-11-09T00:09:41.598Z,11.83
2022-11-09T00:10:43.808Z,11.88
2022-11-09T00:11:45.963Z,11.69
2022-11-09T00:12:48.141Z,11.56
2022-11-09T00:13:50.309Z,11.62
2022-11-09T00:14:52.441Z,11.72
2022-11-09T00:15:58.656Z,11.77
2022-11-09T00:17:01.132Z,11.84
2022-11-09T00:18:03.364Z,11.85
2022-11-09T00:19:05.505Z,11.84
2022-11-09T00:20:08.237Z,11.84
2022-11-09T00:21:12.990Z,11.81
2022-11-09T00:22:15.159Z,11.85
2022-11-09T00:23:17.836Z,11.90
2022-11-09T00:24:20.274Z,11.88
2022-11-09T00:25:22.938Z,11.87
2022-11-09T00:26:25.272Z,11.76
2022-11-09T00:27:28.360Z,11.82
2022-11-09T00:28:32.690Z,11.92
2022-11-09T00:29:34.834Z,12.01
2022-11-09T00:30:36.962Z,12.13
2022-11-09T00:31:39.102Z,12.14
2022-11-09T00:32:44.515Z,12.17
2022-11-09T00:33:53.188Z,12.19
2022-11-09T00:34:55.392Z,12.26
2022-11-09T00:35:57.764Z,12.29
2022-11-09T00:37:01.077Z,12.30
2022-11-09T00:38:03.264Z,12.22
2022-11-09T00:39:05.469Z,12.18
2022-11-09T00:40:09.248Z,12.09
2022-11-09T00:41:11.816Z,12.16
2022-11-09T00:42:13.955Z,12.22
2022-11-09T00:43:17.062Z,12.26
2022-11-09T00:44:21.621Z,12.21
2022-11-09T00:45:23.736Z,12.13
2022-11-09T00:46:26.030Z,12.14
2022-11-09T00:47:28.274Z,12.23
2022-11-09T00:48:30.736Z,12.27
2022-11-09T00:49:32.878Z,12.27
2022-11-09T00:50:35.145Z,12.12
2022-11-09T00:51:37.662Z,11.86
2022-11-09T00:52:39.837Z,11.68
2022-11-09T00:53:42.768Z,11.56
2022-11-09T00:54:45.187Z,11.63
2022-11-09T00:56:09.847Z,11.81
2022-11-09T00:57:13.949Z,11.92
2022-11-09T00:58:19.292Z,11.95
2022-11-09T00:59:21.419Z,12.02
2022-11-09T01:00:24.074Z,12.05
2022-11-09T01:01:26.306Z,12.01
2022-11-09T01:02:28.519Z,12.00
2022-11-09T01:03:32.355Z,11.96
2022-11-09T01:04:36.350Z,11.99
2022-11-09T01:05:39.482Z,12.09
2022-11-09T01:06:41.711Z,12.06
2022-11-09T01:07:45.495Z,11.75
2022-11-09T01:08:48.072Z,11.71
2022-11-09T01:09:50.634Z,11.79
2022-11-09T01:10:52.796Z,11.85
2022-11-09T01:11:58.243Z,11.86
2022-11-09T01:13:00.404Z,11.84
2022-11-09T01:14:02.538Z,11.91
2022-11-09T01:15:05.127Z,11.99
2022-11-09T01:16:13.435Z,11.93
2022-11-09T01:17:15.585Z,11.91
2022-11-09T01:18:20.227Z,11.97
2022-11-09T01:19:22.433Z,11.91
2022-11-09T01:20:24.721Z,11.90
2022-11-09T01:21:28.320Z,11.90
2022-11-09T01:22:30.474Z,11.93
2022-11-09T01:23:32.731Z,11.89
2022-11-09T01:24:34.934Z,11.92
2022-11-09T01:25:37.470Z,11.96
2022-11-09T01:26:39.678Z,11.84
2022-11-09T01:27:42.025Z,11.75
2022-11-09T01:28:44.731Z,11.75
2022-11-09T01:29:46.856Z,11.37
2022-11-09T01:30:49.067Z,11.26
2022-11-09T01:31:51.238Z,11.20
2022-11-09T01:32:53.662Z,10.97
2022-11-09T01:33:55.885Z,10.88
2022-11-09T01:34:58.044Z,10.85
2022-11-09T01:36:08.515Z,10.83
2022-11-09T01:37:10.697Z,10.79
2022-11-09T01:38:12.840Z,10.78
2022-11-09T01:39:15.330Z,10.73
2022-11-09T01:40:17.531Z,10.68
2022-11-09T01:41:27.980Z,10.66
2022-11-09T01:42:30.147Z,10.67
2022-11-09T01:43:32.844Z,10.75
2022-11-09T01:44:38.372Z,10.78
2022-11-09T01:45:50.000Z,10.93
2022-11-09T01:47:00.628Z,10.96
2022-11-09T01:48:13.868Z,11.02
2022-11-09T01:49:43.270Z,10.99
2022-11-09T01:50:58.353Z,10.85
2022-11-09T01:52:09.193Z,10.86
2022-11-09T01:53:17.771Z,10.98
2022-11-09T01:54:30.215Z,11.07
2022-11-09T01:55:32.529Z,11.08
2022-11-09T01:56:34.764Z,11.03
2022-11-09T01:57:43.073Z,10.99
2022-11-09T01:58:54.795Z,10.98
2022-11-09T02:00:02.447Z,10.95
2022-11-09T02:01:17.634Z,10.94
2022-11-09T02:02:20.391Z,10.88
2022-11-09T02:03:30.851Z,10.96
2022-11-09T02:04:39.573Z,10.89
2022-11-09T02:05:42.595Z,10.74
2022-11-09T02:06:46.717Z,10.67
2022-11-09T02:07:49.608Z,10.68
2022-11-09T02:08:56.531Z,10.71
2022-11-09T02:10:14.516Z,10.67
2022-11-09T02:11:20.920Z,10.56
2022-11-09T02:12:25.494Z,10.67
2022-11-09T02:13:30.603Z,10.82
2022-11-09T02:14:34.510Z,10.67
2022-11-09T02:15:41.368Z,10.58
2022-11-09T02:16:48.284Z,10.63
2022-11-09T02:17:53.579Z,10.52
2022-11-09T02:18:58.815Z,10.42
2022-11-09T02:20:01.287Z,10.49
2022-11-09T02:21:04.328Z,10.52
2022-11-09T02:22:06.595Z,10.56
2022-11-09T02:23:08.753Z,10.56
2022-11-09T02:24:11.089Z,10.61
2022-11-09T02:25:15.064Z,10.49
2022-11-09T02:26:24.320Z,10.66
2022-11-09T02:27:26.454Z,10.63
2022-11-09T02:28:28.901Z,10.66
2022-11-09T02:29:40.481Z,10.60
2022-11-09T02:30:46.632Z,10.65
2022-11-09T02:31:53.789Z,10.69
2022-11-09T02:32:55.972Z,10.69
2022-11-09T02:34:11.184Z,10.76
2022-11-09T02:35:13.512Z,10.79
2022-11-09T02:36:16.585Z,10.64
2022-11-09T02:37:47.607Z,10.74
2022-11-09T02:38:51.787Z,10.61
2022-11-09T02:39:57.238Z,10.53
2022-11-09T02:40:59.623Z,10.57
2022-11-09T02:42:10.032Z,10.60
2022-11-09T02:43:14.811Z,10.38
2022-11-09T02:44:19.321Z,10.47
2022-11-09T02:45:21.569Z,10.56
2022-11-09T02:46:42.458Z,10.58
2022-11-09T02:47:44.620Z,10.59
2022-11-09T02:48:46.758Z,10.54
2022-11-09T02:49:50.036Z,10.58
2022-11-09T02:50:52.189Z,10.53
2022-11-09T02:51:55.903Z,10.54
2022-11-09T02:52:59.109Z,10.52
2022-11-09T02:54:01.483Z,10.51
2022-11-09T02:55:04.032Z,10.52
2022-11-09T02:56:06.452Z,10.63
2022-11-09T02:57:08.967Z,10.59
2022-11-09T02:58:11.254Z,10.65
2022-11-09T02:59:14.940Z,10.53
2022-11-09T03:00:17.463Z,10.57
2022-11-09T03:01:20.189Z,10.56
2022-11-09T03:02:22.515Z,10.64
2022-11-09T03:03:26.319Z,10.69
2022-11-09T03:04:28.491Z,10.63
2022-11-09T03:05:30.724Z,10.60
2022-11-09T03:06:36.316Z,10.61
2022-11-09T03:07:44.290Z,10.50
2022-11-09T03:08:47.022Z,10.36
2022-11-09T03:09:50.131Z,10.39
2022-11-09T03:10:53.780Z,10.52
2022-11-09T03:11:56.002Z,10.63
2022-11-09T03:12:58.223Z,10.67
2022-11-09T03:14:01.011Z,10.72
2022-11-09T03:15:07.568Z,10.65
2022-11-09T03:16:10.434Z,10.67
2022-11-09T03:17:14.833Z,10.80
2022-11-09T03:18:17.182Z,10.94
2022-11-09T03:19:19.374Z,10.92
2022-11-09T03:20:24.073Z,10.85
2022-11-09T03:21:28.135Z,10.89
2022-11-09T03:22:30.307Z,10.98
2022-11-09T03:23:33.637Z,11.01
2022-11-09T03:24:37.403Z,10.97
2022-11-09T03:25:39.936Z,10.87
2022-11-09T03:26:42.217Z,10.82
2022-11-09T03:27:44.607Z,10.88
2022-11-09T03:28:48.205Z,10.91
2022-11-09T03:29:50.402Z,10.87
2022-11-09T03:30:52.727Z,10.89
2022-11-09T03:31:55.050Z,10.98
2022-11-09T03:33:01.778Z,11.08
2022-11-09T03:34:04.066Z,11.11
2022-11-09T03:35:06.636Z,11.03
2022-11-09T03:36:08.944Z,11.12
2022-11-09T03:37:11.191Z,11.12
2022-11-09T03:38:13.697Z,11.14
2022-11-09T03:39:15.985Z,11.12
2022-11-09T03:40:18.182Z,11.13
2022-11-09T03:41:21.813Z,11.07
2022-11-09T03:42:24.017Z,10.96
2022-11-09T03:43:26.222Z,10.97
2022-11-09T03:44:28.374Z,10.99
2022-11-09T03:45:30.567Z,11.06
2022-11-09T03:46:32.773Z,11.09
2022-11-09T03:47:34.948Z,11.03
2022-11-09T03:48:37.466Z,11.10
2022-11-09T03:49:39.627Z,11.18
2022-11-09T03:50:41.867Z,11.27
2022-11-09T03:51:43.980Z,11.29
2022-11-09T03:52:47.203Z,11.34
2022-11-09T03:53:49.326Z,11.37
2022-11-09T03:54:51.471Z,11.44
2022-11-09T03:55:53.631Z,11.44
2022-11-09T03:56:55.874Z,11.38
2022-11-09T03:57:58.048Z,11.39
2022-11-09T03:59:00.214Z,11.48
2022-11-09T04:00:02.504Z,11.46
2022-11-09T04:01:13.827Z,11.42
2022-11-09T04:02:16.027Z,11.43
2022-11-09T04:03:18.412Z,11.40
2022-11-09T04:04:20.810Z,11.49
2022-11-09T04:05:23.170Z,11.54
2022-11-09T04:06:25.314Z,11.58
2022-11-09T04:07:27.488Z,11.57
2022-11-09T04:08:29.622Z,11.66
2022-11-09T04:09:31.738Z,11.60
2022-11-09T04:10:34.061Z,11.65
2022-11-09T04:11:36.211Z,11.64
2022-11-09T04:12:38.335Z,11.57
2022-11-09T04:13:40.440Z,11.58
2022-11-09T04:14:42.603Z,11.63
2022-11-09T04:15:44.750Z,11.65
2022-11-09T04:16:46.884Z,11.67
2022-11-09T04:17:59.900Z,11.67
2022-11-09T04:19:02.035Z,11.64
2022-11-09T04:20:08.355Z,11.62
2022-11-09T04:21:10.480Z,11.68
2022-11-09T04:22:12.718Z,11.47
2022-11-09T04:23:15.089Z,11.40
2022-11-09T04:24:17.214Z,11.33
2022-11-09T04:25:19.347Z,11.22
2022-11-09T04:26:21.535Z,11.08
2022-11-09T04:27:23.819Z,11.05
2022-11-09T04:28:26.322Z,11.17
2022-11-09T04:29:28.449Z,11.17
2022-11-09T04:30:33.883Z,11.14
2022-11-09T04:31:36.120Z,11.18
2022-11-09T04:32:38.252Z,11.21
2022-11-09T04:33:40.368Z,11.24
2022-11-09T04:34:42.513Z,11.27
2022-11-09T04:35:44.787Z,11.26
2022-11-09T04:36:47.018Z,11.27
2022-11-09T04:37:54.096Z,11.25
2022-11-09T04:38:56.320Z,11.25
2022-11-09T04:39:58.536Z,11.29
2022-11-09T04:41:01.909Z,11.38
2022-11-09T04:42:04.162Z,11.44
2022-11-09T04:43:10.657Z,11.44
2022-11-09T04:44:12.827Z,11.46
2022-11-09T04:45:14.972Z,11.43
2022-11-09T04:46:17.191Z,11.43
2022-11-09T04:47:19.337Z,11.32
2022-11-09T04:48:21.523Z,11.17
2022-11-09T04:49:23.651Z,11.31
2022-11-09T04:50:26.483Z,11.39
2022-11-09T04:51:28.713Z,11.47
2022-11-09T04:52:30.868Z,11.49
2022-11-09T04:53:33.949Z,11.42
2022-11-09T04:54:36.078Z,11.47
2022-11-09T04:55:38.610Z,11.43
2022-11-09T04:56:40.769Z,11.48
2022-11-09T04:57:42.924Z,11.46
2022-11-09T04:58:45.051Z,11.48
2022-11-09T04:59:47.173Z,11.49
2022-11-09T05:00:49.371Z,11.42
2022-11-09T05:01:51.565Z,11.34
2022-11-09T05:02:53.697Z,11.33
2022-11-09T05:03:55.922Z,11.31
2022-11-09T05:04:58.191Z,11.29
2022-11-09T05:06:00.501Z,11.33
2022-11-09T05:07:02.667Z,11.36
2022-11-09T05:08:06.110Z,11.40
2022-11-09T05:09:08.453Z,11.44
2022-11-09T05:10:10.651Z,11.43
2022-11-09T05:11:12.759Z,11.37
2022-11-09T05:12:14.915Z,11.37
2022-11-09T05:13:17.654Z,11.36
2022-11-09T05:14:20.087Z,11.42
2022-11-09T05:15:22.290Z,11.38
2022-11-09T05:16:24.841Z,11.42
2022-11-09T05:17:26.963Z,11.38
2022-11-09T05:18:29.108Z,11.43
2022-11-09T05:19:31.276Z,11.42
2022-11-09T05:20:34.849Z,11.44
2022-11-09T05:21:36.981Z,11.43
2022-11-09T05:22:59.101Z,11.51
2022-11-09T05:24:02.341Z,11.50
2022-11-09T05:25:04.688Z,11.45
2022-11-09T05:26:06.983Z,11.42
2022-11-09T05:27:09.109Z,11.46
2022-11-09T05:28:11.355Z,11.53
2022-11-09T05:29:13.723Z,11.57
2022-11-09T05:30:15.981Z,11.65
2022-11-09T05:31:18.295Z,11.62
2022-11-09T05:32:20.489Z,11.61
2022-11-09T05:33:23.007Z,11.61
2022-11-09T05:34:25.606Z,11.59
2022-11-09T05:35:27.732Z,11.60
2022-11-09T05:36:30.673Z,11.60
2022-11-09T05:37:32.837Z,11.57
2022-11-09T05:38:35.042Z,11.57
2022-11-09T05:39:37.208Z,11.56
2022-11-09T05:40:39.361Z,11.58
2022-11-09T05:41:41.521Z,11.53
2022-11-09T05:42:44.289Z,11.54
2022-11-09T05:43:47.059Z,11.46
2022-11-09T05:44:49.268Z,11.54
2022-11-09T05:45:51.407Z,11.48
2022-11-09T05:46:53.589Z,11.45
2022-11-09T05:47:55.727Z,11.52
2022-11-09T05:48:57.843Z,11.59
2022-11-09T05:50:00.087Z,11.73
2022-11-09T05:51:03.996Z,11.75
2022-11-09T05:52:06.236Z,11.81
2022-11-09T05:53:10.395Z,11.89
2022-11-09T05:54:12.736Z,11.91
2022-11-09T05:55:15.239Z,11.95
2022-11-09T05:56:17.372Z,11.98
2022-11-09T05:57:19.549Z,11.98
2022-11-09T05:58:21.796Z,11.94
2022-11-09T05:59:23.980Z,11.83
2022-11-09T06:00:26.912Z,11.66
2022-11-09T06:01:29.059Z,11.60
2022-11-09T06:02:32.194Z,11.67
2022-11-09T06:03:34.705Z,11.53
2022-11-09T06:04:36.953Z,11.52
2022-11-09T06:05:40.723Z,11.47
2022-11-09T06:06:43.384Z,11.40
2022-11-09T06:07:46.318Z,11.47
2022-11-09T06:08:49.938Z,11.46
2022-11-09T06:09:52.145Z,11.37
2022-11-09T06:10:59.503Z,11.39
2022-11-09T06:12:01.755Z,11.52
2022-11-09T06:13:04.030Z,11.61
2022-11-09T06:14:06.721Z,11.61
2022-11-09T06:15:09.381Z,11.61
2022-11-09T06:16:11.533Z,11.56
2022-11-09T06:17:13.909Z,11.54
2022-11-09T06:18:16.124Z,11.38
2022-11-09T06:19:18.598Z,11.40
2022-11-09T06:20:21.954Z,11.41
2022-11-09T06:21:24.252Z,11.34
2022-11-09T06:22:26.490Z,11.27
2022-11-09T06:23:30.092Z,11.31
2022-11-09T06:24:32.229Z,11.37
2022-11-09T06:25:34.426Z,11.34
2022-11-09T06:26:36.906Z,11.30
2022-11-09T06:27:39.298Z,11.32
2022-11-09T06:28:41.906Z,11.28
2022-11-09T06:29:44.082Z,11.25
2022-11-09T06:30:46.450Z,11.12
2022-11-09T06:31:48.973Z,11.20
2022-11-09T06:32:51.178Z,11.30
2022-11-09T06:33:53.473Z,11.35
2022-11-09T06:34:55.659Z,11.37
2022-11-09T06:35:58.483Z,11.35
2022-11-09T06:37:00.620Z,11.42
2022-11-09T06:38:02.832Z,11.29
2022-11-09T06:39:05.446Z,11.20
2022-11-09T06:40:08.567Z,11.24
2022-11-09T06:41:10.987Z,11.28
2022-11-09T06:42:13.150Z,11.29
2022-11-09T06:43:15.409Z,11.23
2022-11-09T06:44:18.304Z,11.24
2022-11-09T06:45:20.661Z,11.27
2022-11-09T06:46:22.992Z,11.32
2022-11-09T06:47:25.172Z,11.36
2022-11-09T06:48:27.324Z,11.38
2022-11-09T06:49:29.449Z,11.41
2022-11-09T06:50:34.009Z,11.35
2022-11-09T06:51:36.871Z,11.26
2022-11-09T06:52:39.024Z,11.29
2022-11-09T06:53:41.409Z,11.29
2022-11-09T06:54:43.614Z,11.31
2022-11-09T06:55:50.699Z,11.39
2022-11-09T06:56:56.133Z,11.45
2022-11-09T06:57:58.850Z,11.48
2022-11-09T06:59:01.005Z,11.51
2022-11-09T07:00:05.031Z,11.51
2022-11-09T07:01:13.353Z,11.59
2022-11-09T07:02:19.613Z,11.68
2022-11-09T07:03:23.441Z,11.67
2022-11-09T07:04:25.894Z,11.61
2022-11-09T07:05:28.190Z,11.63
2022-11-09T07:06:30.442Z,11.62
2022-11-09T07:07:32.657Z,11.56
2022-11-09T07:08:35.433Z,11.67
2022-11-09T07:09:37.693Z,11.66
2022-11-09T07:10:40.514Z,11.69
2022-11-09T07:11:42.695Z,11.75
2022-11-09T07:12:44.951Z,11.81
2022-11-09T07:13:53.423Z,11.85
2022-11-09T07:14:58.525Z,11.84
2022-11-09T07:16:01.094Z,11.77
2022-11-09T07:17:03.252Z,11.77
2022-11-09T07:18:08.199Z,11.71
2022-11-09T07:19:10.343Z,11.72
2022-11-09T07:20:14.698Z,11.66
2022-11-09T07:21:17.027Z,11.63
2022-11-09T07:22:19.837Z,11.63
2022-11-09T07:23:22.717Z,11.62
2022-11-09T07:24:25.212Z,11.54
2022-11-09T07:25:27.567Z,11.49
2022-11-09T07:26:29.771Z,11.51
2022-11-09T07:27:31.992Z,11.53
2022-11-09T07:28:35.353Z,11.57
2022-11-09T07:29:37.744Z,11.53
2022-11-09T07:30:39.985Z,11.65
2022-11-09T07:31:42.758Z,11.63
2022-11-09T07:34:07.184Z,11.66
2022-11-09T07:35:09.857Z,11.68
2022-11-09T07:36:14.603Z,11.79
2022-11-09T07:37:20.497Z,11.74
2022-11-09T07:38:22.691Z,11.73
2022-11-09T07:39:24.902Z,11.78
2022-11-09T07:40:27.056Z,11.72
2022-11-09T07:41:34.378Z,11.76
2022-11-09T07:42:36.911Z,11.78
2022-11-09T07:43:39.077Z,11.83
2022-11-09T07:44:41.296Z,11.91
2022-11-09T07:45:43.471Z,11.92
2022-11-09T07:46:49.584Z,11.95
2022-11-09T07:47:59.103Z,12.01
2022-11-09T07:49:01.254Z,12.00
2022-11-09T07:50:04.129Z,12.09
2022-11-09T07:51:06.333Z,12.03
2022-11-09T07:52:08.588Z,11.79
2022-11-09T07:53:13.086Z,11.89
2022-11-09T07:54:15.246Z,11.90
2022-11-09T07:55:17.847Z,11.92
2022-11-09T07:56:20.080Z,11.83
2022-11-09T07:57:22.332Z,11.97
2022-11-09T07:58:24.820Z,12.02
2022-11-09T07:59:27.067Z,12.10
2022-11-09T08:00:30.806Z,12.11
2022-11-09T08:01:33.023Z,12.05
2022-11-09T08:02:35.211Z,11.86
2022-11-09T08:03:37.865Z,11.76
2022-11-09T08:04:40.019Z,11.69
2022-11-09T08:05:42.179Z,11.58
2022-11-09T08:06:44.428Z,11.58
2022-11-09T08:07:46.868Z,11.72
2022-11-09T08:08:49.484Z,11.71
2022-11-09T08:09:51.744Z,11.73
2022-11-09T08:10:57.103Z,11.81
2022-11-09T08:11:59.256Z,11.83
2022-11-09T08:13:04.888Z,11.83
2022-11-09T08:14:07.517Z,11.82
2022-11-09T08:15:10.157Z,11.84
2022-11-09T08:16:12.651Z,11.82
2022-11-09T08:17:14.870Z,11.82
2022-11-09T08:18:20.293Z,11.76
2022-11-09T08:19:22.749Z,11.89
2022-11-09T08:20:24.892Z,11.88
2022-11-09T08:21:27.085Z,11.81
2022-11-09T08:22:29.309Z,11.77
2022-11-09T08:23:31.828Z,11.84
2022-11-09T08:24:33.994Z,11.85
2022-11-09T08:25:36.246Z,11.96
2022-11-09T08:26:38.439Z,12.09
2022-11-09T08:27:40.737Z,12.07
2022-11-09T08:28:42.931Z,12.07
2022-11-09T08:29:45.260Z,12.07
2022-11-09T08:30:55.876Z,12.15
2022-11-09T08:31:58.129Z,12.22
2022-11-09T08:33:02.018Z,12.25
2022-11-09T08:34:04.172Z,12.27
2022-11-09T08:35:07.007Z,12.26
2022-11-09T08:36:11.883Z,12.20
2022-11-09T08:37:15.372Z,12.18
2022-11-09T08:38:18.158Z,12.27
2022-11-09T08:39:22.989Z,12.25
2022-11-09T08:40:26.324Z,12.24
2022-11-09T08:41:29.035Z,12.32
2022-11-09T08:42:31.234Z,12.32
2022-11-09T08:43:33.805Z,12.31
2022-11-09T08:44:36.005Z,12.29
2022-11-09T08:45:40.540Z,12.26
2022-11-09T08:46:42.813Z,12.22
2022-11-09T08:47:45.725Z,12.31
2022-11-09T08:48:47.962Z,12.27
2022-11-09T08:49:50.492Z,12.31
2022-11-09T08:50:59.060Z,12.38
2022-11-09T08:52:01.399Z,12.42
2022-11-09T08:53:05.749Z,12.53
2022-11-09T08:54:09.017Z,12.42
2022-11-09T08:55:11.360Z,12.31
2022-11-09T08:56:18.269Z,12.22
2022-11-09T08:57:22.226Z,12.35
2022-11-09T08:58:24.603Z,12.41
2022-11-09T08:59:26.714Z,12.35
2022-11-09T09:00:28.995Z,12.26
2022-11-09T09:01:31.170Z,12.38
2022-11-09T09:02:33.515Z,12.43
2022-11-09T09:03:36.073Z,12.49
2022-11-09T09:04:39.750Z,12.56
2022-11-09T09:05:41.940Z,12.39
2022-11-09T09:06:44.247Z,12.35
2022-11-09T09:07:46.432Z,12.29
2022-11-09T09:08:48.601Z,12.31
2022-11-09T09:09:50.748Z,12.21
2022-11-09T09:10:52.971Z,12.31
2022-11-09T09:11:55.219Z,12.45
2022-11-09T09:12:57.641Z,12.59
2022-11-09T09:13:59.825Z,12.58
2022-11-09T09:15:02.240Z,12.59
2022-11-09T09:16:15.549Z,12.60
2022-11-09T09:17:17.741Z,12.74
2022-11-09T09:18:20.429Z,12.79
2022-11-09T09:19:23.041Z,12.86
2022-11-09T09:20:25.490Z,12.85
2022-11-09T09:21:27.763Z,12.92
2022-11-09T09:22:29.888Z,13.07
2022-11-09T09:23:32.039Z,13.07
2022-11-09T09:24:35.182Z,12.99
2022-11-09T09:25:37.363Z,13.12
2022-11-09T09:26:39.622Z,13.20
2022-11-09T09:27:44.448Z,13.26
2022-11-09T09:28:46.609Z,13.35
2022-11-09T09:29:48.759Z,13.44
2022-11-09T09:30:50.949Z,13.40
2022-11-09T09:31:53.125Z,13.49
2022-11-09T09:33:01.198Z,13.49
2022-11-09T09:34:03.930Z,13.55
2022-11-09T09:35:06.535Z,13.58
2022-11-09T09:36:15.675Z,13.51
2022-11-09T09:37:18.222Z,13.70
2022-11-09T09:38:20.643Z,13.79
2022-11-09T09:39:23.000Z,14.03
2022-11-09T09:40:43.525Z,14.03
2022-11-09T09:41:56.859Z,14.01
2022-11-09T09:43:00.028Z,14.01
2022-11-09T09:44:24.116Z,14.19
2022-11-09T09:45:32.210Z,14.23
2022-11-09T09:47:15.362Z,14.21
2022-11-09T09:48:59.219Z,14.07
2022-11-09T09:50:05.982Z,14.32
2022-11-09T09:51:17.756Z,14.49
2022-11-09T09:52:25.510Z,14.52
2022-11-09T09:53:40.724Z,14.52
2022-11-09T09:54:52.014Z,14.62
2022-11-09T09:56:01.631Z,14.74
2022-11-09T09:57:03.917Z,14.71
2022-11-09T09:58:24.279Z,14.17
2022-11-09T09:59:43.623Z,13.98
2022-11-09T10:00:45.762Z,13.93
2022-11-09T10:01:49.156Z,13.94
2022-11-09T10:02:52.766Z,14.03
2022-11-09T10:03:56.248Z,14.20
2022-11-09T10:05:02.044Z,14.10
2022-11-09T10:06:28.683Z,13.98
2022-11-09T10:07:45.233Z,14.27
2022-11-09T10:09:05.043Z,14.29
2022-11-09T10:10:25.661Z,14.37
2022-11-09T10:12:04.881Z,14.33
2022-11-09T10:13:38.305Z,14.49
2022-11-09T10:15:16.969Z,14.61
2022-11-09T10:16:52.758Z,14.60
2022-11-09T10:18:16.450Z,14.59
2022-11-09T10:19:38.959Z,14.80
2022-11-09T10:21:22.915Z,14.69
2022-11-09T10:22:55.311Z,14.95
2022-11-09T10:24:09.602Z,15.14
2022-11-09T10:25:43.511Z,15.27
2022-11-09T10:26:50.062Z,15.36
2022-11-09T10:27:55.997Z,15.36
2022-11-09T10:29:15.513Z,15.28
2022-11-09T10:30:20.871Z,15.16
2022-11-09T10:31:25.210Z,15.33
2022-11-09T10:32:31.464Z,15.35
2022-11-09T10:33:33.582Z,15.32
2022-11-09T10:34:48.753Z,15.11
2022-11-09T10:35:57.759Z,15.10
2022-11-09T10:37:10.574Z,14.98
2022-11-09T10:38:18.143Z,14.89
2022-11-09T10:39:22.896Z,14.84
2022-11-09T10:40:52.371Z,14.80
2022-11-09T10:42:13.316Z,14.92
2022-11-09T10:43:34.098Z,14.95
2022-11-09T10:44:54.687Z,15.01
2022-11-09T10:46:15.506Z,15.01
2022-11-09T10:47:48.211Z,15.10
2022-11-09T10:49:21.122Z,15.08
2022-11-09T10:50:52.551Z,15.06
2022-11-09T10:52:31.287Z,15.38
2022-11-09T10:54:14.835Z,15.56
2022-11-09T10:55:36.987Z,15.66
2022-11-09T10:57:05.986Z,15.50
2022-11-09T10:58:36.312Z,15.47
2022-11-09T10:59:58.263Z,15.61
2022-11-09T11:01:23.192Z,15.39
2022-11-09T11:02:45.887Z,15.52
2022-11-09T11:04:25.407Z,15.50
2022-11-09T11:06:00.745Z,15.35
2022-11-09T11:07:22.502Z,15.47
2022-11-09T11:08:47.982Z,15.52
2022-11-09T11:10:14.716Z,15.61
2022-11-09T11:11:37.981Z,15.56
2022-11-09T11:13:01.557Z,15.49
2022-11-09T11:14:48.327Z,15.65
2022-11-09T11:16:28.177Z,15.82
2022-11-09T11:17:49.465Z,15.69
2022-11-09T11:19:32.447Z,15.55
2022-11-09T11:21:07.217Z,15.51
2022-11-09T11:22:28.103Z,15.54
2022-11-09T11:24:17.884Z,15.42
2022-11-09T11:26:25.178Z,15.41
2022-11-09T11:28:00.957Z,15.41
2022-11-09T11:29:40.305Z,15.45
2022-11-09T11:31:01.394Z,15.46
2022-11-09T11:32:23.772Z,15.46
2022-11-09T11:33:44.878Z,15.47
2022-11-09T11:35:13.637Z,15.56
2022-11-09T11:36:53.106Z,15.61
2022-11-09T11:38:22.690Z,15.73
2022-11-09T11:40:04.776Z,15.77
2022-11-09T11:41:40.722Z,15.92
2022-11-09T11:43:20.030Z,16.03
2022-11-09T11:45:25.633Z,16.10
2022-11-09T11:46:52.904Z,16.16
2022-11-09T11:48:26.122Z,16.14
2022-11-09T11:50:29.933Z,16.28
2022-11-09T11:52:15.804Z,16.42
2022-11-09T11:54:01.866Z,16.50
2022-11-09T11:55:39.693Z,16.54
2022-11-09T11:57:15.978Z,16.43
2022-11-09T11:58:45.660Z,16.20
2022-11-09T12:00:13.331Z,16.34
2022-11-09T12:01:50.332Z,16.46
2022-11-09T12:03:50.316Z,16.57
2022-11-09T12:05:31.300Z,16.56
2022-11-09T12:06:56.569Z,16.36
2022-11-09T12:08:41.283Z,16.25
2022-11-09T12:10:20.537Z,16.29
2022-11-09T12:11:50.825Z,16.29
2022-11-09T12:13:39.678Z,16.67
2022-11-09T12:15:27.213Z,16.60
2022-11-09T12:16:55.986Z,16.58
2022-11-09T12:18:34.024Z,16.64
2022-11-09T12:20:06.902Z,16.66
2022-11-09T12:21:43.359Z,16.84
2022-11-09T12:23:22.690Z,16.68
2022-11-09T12:24:57.356Z,16.77
2022-11-09T12:26:36.019Z,16.62
2022-11-09T12:28:06.154Z,16.54
2022-11-09T12:29:37.110Z,16.61
2022-11-09T12:31:24.785Z,16.75
2022-11-09T12:32:51.263Z,16.91
2022-11-09T12:34:36.887Z,16.90
2022-11-09T12:36:24.317Z,16.86
2022-11-09T12:37:55.313Z,16.85
2022-11-09T12:39:30.068Z,16.75
2022-11-09T12:40:58.538Z,16.87
2022-11-09T12:42:35.722Z,16.88
2022-11-09T12:44:06.375Z,16.64
2022-11-09T12:45:35.687Z,16.70
2022-11-09T12:47:06.776Z,16.72
2022-11-09T12:48:33.000Z,16.50
2022-11-09T12:49:56.009Z,16.48
2022-11-09T12:51:18.082Z,16.42
2022-11-09T12:52:39.566Z,16.26
2022-11-09T12:54:09.896Z,16.19
2022-11-09T12:55:42.322Z,16.36
2022-11-09T12:57:07.717Z,16.32
2022-11-09T12:58:35.475Z,16.50
2022-11-09T13:00:01.236Z,16.47
2022-11-09T13:01:33.866Z,16.32
2022-11-09T13:02:58.472Z,16.24
2022-11-09T13:04:21.964Z,16.19
2022-11-09T13:05:44.993Z,16.30
2022-11-09T13:07:08.851Z,16.08
2022-11-09T13:08:31.925Z,16.38
2022-11-09T13:09:58.759Z,16.14
2022-11-09T13:11:37.721Z,16.02
2022-11-09T13:13:07.347Z,16.09
2022-11-09T13:14:34.848Z,16.12
2022-11-09T13:16:19.747Z,15.96
2022-11-09T13:17:59.664Z,16.19
2022-11-09T13:19:46.450Z,16.18
2022-11-09T13:21:21.937Z,16.30
2022-11-09T13:22:42.458Z,15.95
2022-11-09T13:24:31.309Z,15.96
2022-11-09T13:25:53.066Z,16.01
2022-11-09T13:27:33.622Z,16.05
2022-11-09T13:29:12.468Z,15.82
2022-11-09T13:30:43.912Z,15.49
2022-11-09T13:32:26.147Z,15.60
2022-11-09T13:33:46.994Z,15.68
2022-11-09T13:35:32.897Z,15.44
2022-11-09T13:37:31.299Z,15.75
2022-11-09T13:39:30.838Z,15.50
2022-11-09T13:40:56.335Z,15.34
2022-11-09T13:42:28.722Z,15.37
2022-11-09T13:44:26.397Z,15.55
2022-11-09T13:46:03.804Z,15.48
2022-11-09T13:47:37.118Z,15.34
2022-11-09T13:48:57.708Z,15.28
2022-11-09T13:50:22.854Z,15.20
2022-11-09T13:51:47.654Z,15.45
2022-11-09T13:53:29.616Z,15.41
2022-11-09T13:54:54.103Z,15.09
2022-11-09T13:56:27.577Z,15.23
2022-11-09T13:57:49.176Z,15.15
2022-11-09T13:59:16.262Z,15.13
2022-11-09T14:00:36.998Z,15.04
2022-11-09T14:01:59.548Z,15.26
2022-11-09T14:03:22.306Z,15.19
2022-11-09T14:04:44.205Z,15.16
2022-11-09T14:06:05.929Z,14.94
2022-11-09T14:07:38.144Z,15.08
2022-11-09T14:09:00.678Z,15.06
2022-11-09T14:10:31.814Z,14.95
2022-11-09T14:12:11.246Z,15.04
2022-11-09T14:13:50.165Z,15.02
2022-11-09T14:15:29.027Z,14.90
2022-11-09T14:17:18.780Z,14.91
2022-11-09T14:18:59.291Z,14.83
2022-11-09T14:20:28.765Z,14.89
2022-11-09T14:21:52.367Z,14.72
2022-11-09T14:23:28.168Z,14.82
2022-11-09T14:24:49.242Z,14.83
2022-11-09T14:26:25.137Z,14.82
2022-11-09T14:27:56.956Z,14.74
2022-11-09T14:29:24.717Z,14.90
2022-11-09T14:30:45.759Z,14.75
2022-11-09T14:32:40.372Z,14.70
2022-11-09T14:34:04.642Z,14.76
2022-11-09T14:35:33.826Z,14.93
2022-11-09T14:36:55.702Z,14.84
2022-11-09T14:38:18.159Z,14.87
2022-11-09T14:39:39.741Z,14.81
2022-11-09T14:41:01.512Z,14.69
2022-11-09T14:42:23.511Z,14.67
2022-11-09T14:43:44.931Z,14.71
2022-11-09T14:45:07.955Z,14.57
2022-11-09T14:46:31.326Z,14.66
2022-11-09T14:47:55.747Z,14.58
2022-11-09T14:49:16.598Z,14.70
2022-11-09T14:50:37.940Z,14.45
2022-11-09T14:51:58.924Z,14.46
2022-11-09T14:53:26.607Z,14.40
2022-11-09T14:54:49.077Z,14.31
2022-11-09T14:56:14.186Z,14.36
2022-11-09T14:57:36.789Z,14.41
2022-11-09T14:58:58.059Z,14.45
2022-11-09T15:00:26.192Z,14.31
2022-11-09T15:02:08.840Z,14.30
2022-11-09T15:03:30.468Z,14.24
2022-11-09T15:04:52.533Z,14.19
2022-11-09T15:06:16.681Z,14.17
2022-11-09T15:07:37.727Z,14.26
2022-11-09T15:09:01.586Z,14.15
2022-11-09T15:10:24.096Z,14.22
2022-11-09T15:11:45.565Z,14.12
2022-11-09T15:13:06.502Z,14.08